sensor_id;sensor_type;location;lat;lon;timestamp;P1;durP1;ratioP1;P2;durP2;ratioP2
12359;SDS011;6244;51.460;7.090;2023-03-09T00:04:41;21.73;;;12.55;;
12359;SDS011;6244;51.460;7.090;2023-03-09T00:09:37;23.88;;;13.98;;
12359;SDS011;6244;51.460;7.090;2023-03-09T00:14:34;23.70;;;14.18;;
12359;SDS011;6244;51.460;7.090;2023-03-09T00:19:30;24.30;;;13.80;;
12359;SDS011;6244;51.460;7.090;2023-03-09T00:24:28;22.80;;;12.90;;
12359;SDS011;6244;51.460;7.090;2023-03-09T00:29:26;21.67;;;12.55;;
12359;SDS011;6244;51.460;7.090;2023-03-09T00:34:24;24.35;;;13.82;;
12359;SDS011;6244;51.460;7.090;2023-03-09T00:39:21;24.80;;;13.15;;
12359;SDS011;6244;51.460;7.090;2023-03-09T00:44:19;22.50;;;12.32;;
12359;SDS011;6244;51.460;7.090;2023-03-09T00:49:15;22.75;;;13.40;;
12359;SDS011;6244;51.460;7.090;2023-03-09T00:54:12;22.70;;;13.18;;
12359;SDS011;6244;51.460;7.090;2023-03-09T00:59:10;21.27;;;13.60;;
12359;SDS011;6244;51.460;7.090;2023-03-09T01:04:08;21.63;;;12.77;;
12359;SDS011;6244;51.460;7.090;2023-03-09T01:09:04;25.20;;;14.57;;
12359;SDS011;6244;51.460;7.090;2023-03-09T01:14:01;27.02;;;14.75;;
12359;SDS011;6244;51.460;7.090;2023-03-09T01:18:58;27.75;;;15.05;;
12359;SDS011;6244;51.460;7.090;2023-03-09T01:23:56;27.15;;;15.95;;
12359;SDS011;6244;51.460;7.090;2023-03-09T01:28:52;26.63;;;15.45;;
12359;SDS011;6244;51.460;7.090;2023-03-09T01:33:49;26.80;;;14.43;;
12359;SDS011;6244;51.460;7.090;2023-03-09T01:38:47;29.73;;;17.23;;
12359;SDS011;6244;51.460;7.090;2023-03-09T01:43:46;33.88;;;18.38;;
12359;SDS011;6244;51.460;7.090;2023-03-09T01:48:43;36.13;;;19.40;;
12359;SDS011;6244;51.460;7.090;2023-03-09T01:53:39;41.03;;;20.42;;
12359;SDS011;6244;51.460;7.090;2023-03-09T01:58:36;34.40;;;18.95;;
12359;SDS011;6244;51.460;7.090;2023-03-09T02:03:35;34.88;;;18.23;;
12359;SDS011;6244;51.460;7.090;2023-03-09T02:08:34;32.58;;;17.83;;
12359;SDS011;6244;51.460;7.090;2023-03-09T02:13:34;29.63;;;16.58;;
12359;SDS011;6244;51.460;7.090;2023-03-09T02:18:34;31.63;;;16.83;;
12359;SDS011;6244;51.460;7.090;2023-03-09T02:23:33;29.58;;;16.17;;
12359;SDS011;6244;51.460;7.090;2023-03-09T02:28:35;30.97;;;16.67;;
12359;SDS011;6244;51.460;7.090;2023-03-09T02:33:32;27.55;;;15.07;;
12359;SDS011;6244;51.460;7.090;2023-03-09T02:38:29;27.10;;;15.90;;
12359;SDS011;6244;51.460;7.090;2023-03-09T02:43:30;27.50;;;15.68;;
12359;SDS011;6244;51.460;7.090;2023-03-09T02:48:31;29.33;;;16.75;;
12359;SDS011;6244;51.460;7.090;2023-03-09T02:53:28;27.83;;;15.35;;
12359;SDS011;6244;51.460;7.090;2023-03-09T02:58:25;32.40;;;16.20;;
12359;SDS011;6244;51.460;7.090;2023-03-09T03:03:21;31.15;;;17.95;;
12359;SDS011;6244;51.460;7.090;2023-03-09T03:08:19;29.10;;;16.75;;
12359;SDS011;6244;51.460;7.090;2023-03-09T03:13:16;30.05;;;17.50;;
12359;SDS011;6244;51.460;7.090;2023-03-09T03:18:12;33.05;;;17.77;;
12359;SDS011;6244;51.460;7.090;2023-03-09T03:23:09;33.83;;;17.90;;
12359;SDS011;6244;51.460;7.090;2023-03-09T03:28:07;34.85;;;17.75;;
12359;SDS011;6244;51.460;7.090;2023-03-09T03:33:03;33.00;;;17.05;;
12359;SDS011;6244;51.460;7.090;2023-03-09T03:38:00;30.25;;;16.92;;
12359;SDS011;6244;51.460;7.090;2023-03-09T03:42:56;31.45;;;16.65;;
12359;SDS011;6244;51.460;7.090;2023-03-09T03:47:54;33.20;;;18.95;;
12359;SDS011;6244;51.460;7.090;2023-03-09T03:52:51;32.25;;;18.83;;
12359;SDS011;6244;51.460;7.090;2023-03-09T03:57:47;33.47;;;17.80;;
12359;SDS011;6244;51.460;7.090;2023-03-09T04:02:44;32.75;;;16.90;;
12359;SDS011;6244;51.460;7.090;2023-03-09T04:07:41;41.63;;;20.42;;
12359;SDS011;6244;51.460;7.090;2023-03-09T04:12:38;31.00;;;17.40;;
12359;SDS011;6244;51.460;7.090;2023-03-09T04:17:35;35.50;;;18.85;;
12359;SDS011;6244;51.460;7.090;2023-03-09T04:22:31;32.47;;;18.60;;
12359;SDS011;6244;51.460;7.090;2023-03-09T04:27:29;40.58;;;20.30;;
12359;SDS011;6244;51.460;7.090;2023-03-09T04:32:25;35.63;;;19.92;;
12359;SDS011;6244;51.460;7.090;2023-03-09T04:37:22;37.85;;;19.70;;
12359;SDS011;6244;51.460;7.090;2023-03-09T04:42:18;36.33;;;20.02;;
12359;SDS011;6244;51.460;7.090;2023-03-09T04:47:16;40.60;;;20.17;;
12359;SDS011;6244;51.460;7.090;2023-03-09T04:52:13;37.30;;;18.75;;
12359;SDS011;6244;51.460;7.090;2023-03-09T04:57:10;43.75;;;20.92;;
12359;SDS011;6244;51.460;7.090;2023-03-09T05:02:06;41.92;;;20.90;;
12359;SDS011;6244;51.460;7.090;2023-03-09T05:07:04;42.58;;;20.92;;
12359;SDS011;6244;51.460;7.090;2023-03-09T05:12:01;38.42;;;20.42;;
12359;SDS011;6244;51.460;7.090;2023-03-09T05:16:57;41.53;;;22.08;;
12359;SDS011;6244;51.460;7.090;2023-03-09T05:21:54;38.92;;;20.58;;
12359;SDS011;6244;51.460;7.090;2023-03-09T05:26:51;46.38;;;21.35;;
12359;SDS011;6244;51.460;7.090;2023-03-09T05:31:48;41.92;;;20.90;;
12359;SDS011;6244;51.460;7.090;2023-03-09T05:36:45;43.58;;;22.15;;
12359;SDS011;6244;51.460;7.090;2023-03-09T05:41:41;41.72;;;21.00;;
12359;SDS011;6244;51.460;7.090;2023-03-09T05:46:39;44.67;;;21.48;;
12359;SDS011;6244;51.460;7.090;2023-03-09T05:51:37;43.95;;;20.70;;
12359;SDS011;6244;51.460;7.090;2023-03-09T05:56:33;46.10;;;23.20;;
12359;SDS011;6244;51.460;7.090;2023-03-09T06:01:30;46.30;;;22.05;;
12359;SDS011;6244;51.460;7.090;2023-03-09T06:06:28;42.85;;;22.90;;
12359;SDS011;6244;51.460;7.090;2023-03-09T06:11:25;45.90;;;22.02;;
12359;SDS011;6244;51.460;7.090;2023-03-09T06:16:21;50.05;;;25.08;;
12359;SDS011;6244;51.460;7.090;2023-03-09T06:21:18;53.47;;;23.80;;
12359;SDS011;6244;51.460;7.090;2023-03-09T06:26:16;55.95;;;26.17;;
12359;SDS011;6244;51.460;7.090;2023-03-09T06:31:13;53.60;;;25.52;;
12359;SDS011;6244;51.460;7.090;2023-03-09T06:36:11;50.22;;;24.38;;
12359;SDS011;6244;51.460;7.090;2023-03-09T06:41:09;56.67;;;23.50;;
12359;SDS011;6244;51.460;7.090;2023-03-09T06:46:08;52.42;;;24.00;;
12359;SDS011;6244;51.460;7.090;2023-03-09T06:51:05;52.42;;;24.35;;
12359;SDS011;6244;51.460;7.090;2023-03-09T06:56:01;54.03;;;25.52;;
12359;SDS011;6244;51.460;7.090;2023-03-09T07:01:04;52.53;;;26.83;;
12359;SDS011;6244;51.460;7.090;2023-03-09T07:06:03;49.08;;;24.17;;
12359;SDS011;6244;51.460;7.090;2023-03-09T07:11:00;46.83;;;24.50;;
12359;SDS011;6244;51.460;7.090;2023-03-09T07:15:56;52.90;;;24.60;;
12359;SDS011;6244;51.460;7.090;2023-03-09T07:20:53;53.63;;;23.80;;
12359;SDS011;6244;51.460;7.090;2023-03-09T07:25:51;50.90;;;22.90;;
12359;SDS011;6244;51.460;7.090;2023-03-09T07:30:47;54.40;;;23.77;;
12359;SDS011;6244;51.460;7.090;2023-03-09T07:35:43;47.33;;;21.80;;
12359;SDS011;6244;51.460;7.090;2023-03-09T07:40:40;43.67;;;21.90;;
12359;SDS011;6244;51.460;7.090;2023-03-09T07:45:38;47.47;;;21.65;;
12359;SDS011;6244;51.460;7.090;2023-03-09T07:50:35;38.65;;;20.38;;
12359;SDS011;6244;51.460;7.090;2023-03-09T07:55:32;46.95;;;21.33;;
12359;SDS011;6244;51.460;7.090;2023-03-09T08:00:29;43.80;;;20.70;;
12359;SDS011;6244;51.460;7.090;2023-03-09T08:05:28;48.55;;;22.65;;
12359;SDS011;6244;51.460;7.090;2023-03-09T08:10:25;52.55;;;25.13;;
12359;SDS011;6244;51.460;7.090;2023-03-09T08:15:22;58.42;;;27.17;;
12359;SDS011;6244;51.460;7.090;2023-03-09T08:20:19;67.85;;;27.08;;
12359;SDS011;6244;51.460;7.090;2023-03-09T08:25:17;60.00;;;28.30;;
12359;SDS011;6244;51.460;7.090;2023-03-09T08:30:14;53.38;;;25.48;;
12359;SDS011;6244;51.460;7.090;2023-03-09T08:35:14;62.03;;;26.85;;
12359;SDS011;6244;51.460;7.090;2023-03-09T08:40:11;63.47;;;28.25;;
12359;SDS011;6244;51.460;7.090;2023-03-09T08:45:10;59.85;;;26.75;;
12359;SDS011;6244;51.460;7.090;2023-03-09T08:50:08;61.72;;;27.70;;
12359;SDS011;6244;51.460;7.090;2023-03-09T08:55:06;62.35;;;28.25;;
12359;SDS011;6244;51.460;7.090;2023-03-09T09:00:04;55.92;;;27.23;;
12359;SDS011;6244;51.460;7.090;2023-03-09T09:05:05;64.07;;;28.63;;
12359;SDS011;6244;51.460;7.090;2023-03-09T09:10:02;59.90;;;26.58;;
12359;SDS011;6244;51.460;7.090;2023-03-09T09:14:59;55.67;;;26.60;;
12359;SDS011;6244;51.460;7.090;2023-03-09T09:19:56;56.72;;;25.15;;
12359;SDS011;6244;51.460;7.090;2023-03-09T09:24:53;46.58;;;24.25;;
12359;SDS011;6244;51.460;7.090;2023-03-09T09:29:50;45.35;;;22.80;;
12359;SDS011;6244;51.460;7.090;2023-03-09T09:34:47;45.55;;;23.95;;
12359;SDS011;6244;51.460;7.090;2023-03-09T09:39:44;57.22;;;25.40;;
12359;SDS011;6244;51.460;7.090;2023-03-09T09:44:42;48.58;;;23.05;;
12359;SDS011;6244;51.460;7.090;2023-03-09T09:49:42;52.83;;;24.70;;
12359;SDS011;6244;51.460;7.090;2023-03-09T09:54:41;47.20;;;21.50;;
12359;SDS011;6244;51.460;7.090;2023-03-09T09:59:47;48.75;;;22.90;;
12359;SDS011;6244;51.460;7.090;2023-03-09T10:04:52;45.17;;;21.27;;
12359;SDS011;6244;51.460;7.090;2023-03-09T10:09:53;49.10;;;24.15;;
12359;SDS011;6244;51.460;7.090;2023-03-09T10:14:55;52.08;;;23.75;;
12359;SDS011;6244;51.460;7.090;2023-03-09T10:19:56;47.20;;;22.70;;
12359;SDS011;6244;51.460;7.090;2023-03-09T10:24:57;48.65;;;24.27;;
12359;SDS011;6244;51.460;7.090;2023-03-09T10:29:57;47.45;;;22.63;;
12359;SDS011;6244;51.460;7.090;2023-03-09T10:35:01;56.10;;;24.38;;
12359;SDS011;6244;51.460;7.090;2023-03-09T10:40:14;56.60;;;23.65;;
12359;SDS011;6244;51.460;7.090;2023-03-09T10:45:25;50.13;;;24.52;;
12359;SDS011;6244;51.460;7.090;2023-03-09T10:50:24;63.03;;;25.77;;
12359;SDS011;6244;51.460;7.090;2023-03-09T10:55:32;53.97;;;24.33;;
12359;SDS011;6244;51.460;7.090;2023-03-09T11:00:33;53.58;;;25.48;;
12359;SDS011;6244;51.460;7.090;2023-03-09T11:05:30;50.40;;;23.92;;
12359;SDS011;6244;51.460;7.090;2023-03-09T11:10:27;52.55;;;24.20;;
12359;SDS011;6244;51.460;7.090;2023-03-09T11:15:26;52.88;;;23.75;;
12359;SDS011;6244;51.460;7.090;2023-03-09T11:20:29;45.97;;;23.00;;
12359;SDS011;6244;51.460;7.090;2023-03-09T11:30:29;47.20;;;23.15;;
12359;SDS011;6244;51.460;7.090;2023-03-09T11:35:26;48.28;;;21.63;;
12359;SDS011;6244;51.460;7.090;2023-03-09T11:40:25;45.95;;;22.88;;
12359;SDS011;6244;51.460;7.090;2023-03-09T11:45:25;41.42;;;21.23;;
12359;SDS011;6244;51.460;7.090;2023-03-09T11:50:26;48.90;;;22.67;;
12359;SDS011;6244;51.460;7.090;2023-03-09T11:55:28;42.47;;;22.88;;
12359;SDS011;6244;51.460;7.090;2023-03-09T12:00:29;48.17;;;24.58;;
12359;SDS011;6244;51.460;7.090;2023-03-09T12:05:31;52.78;;;23.05;;
12359;SDS011;6244;51.460;7.090;2023-03-09T12:10:33;47.65;;;22.40;;
12359;SDS011;6244;51.460;7.090;2023-03-09T12:15:33;47.55;;;23.58;;
12359;SDS011;6244;51.460;7.090;2023-03-09T12:20:34;46.83;;;21.70;;
12359;SDS011;6244;51.460;7.090;2023-03-09T12:25:34;45.28;;;22.73;;
12359;SDS011;6244;51.460;7.090;2023-03-09T12:30:31;43.00;;;21.45;;
12359;SDS011;6244;51.460;7.090;2023-03-09T12:41:00;46.55;;;24.00;;
12359;SDS011;6244;51.460;7.090;2023-03-09T12:45:57;39.80;;;21.65;;
12359;SDS011;6244;51.460;7.090;2023-03-09T12:51:55;42.90;;;21.55;;
12359;SDS011;6244;51.460;7.090;2023-03-09T12:57:13;42.72;;;21.20;;
12359;SDS011;6244;51.460;7.090;2023-03-09T13:07:31;44.75;;;22.08;;
12359;SDS011;6244;51.460;7.090;2023-03-09T13:12:29;45.35;;;20.67;;
12359;SDS011;6244;51.460;7.090;2023-03-09T13:17:34;36.95;;;20.10;;
12359;SDS011;6244;51.460;7.090;2023-03-09T13:22:36;40.53;;;18.73;;
12359;SDS011;6244;51.460;7.090;2023-03-09T13:27:35;41.83;;;22.10;;
12359;SDS011;6244;51.460;7.090;2023-03-09T13:32:33;45.75;;;22.50;;
12359;SDS011;6244;51.460;7.090;2023-03-09T13:37:34;42.20;;;21.48;;
12359;SDS011;6244;51.460;7.090;2023-03-09T13:42:37;45.13;;;21.13;;
12359;SDS011;6244;51.460;7.090;2023-03-09T13:47:34;40.65;;;22.00;;
12359;SDS011;6244;51.460;7.090;2023-03-09T13:52:31;44.15;;;22.88;;
12359;SDS011;6244;51.460;7.090;2023-03-09T13:57:30;40.83;;;22.83;;
12359;SDS011;6244;51.460;7.090;2023-03-09T14:02:29;52.10;;;27.77;;
12359;SDS011;6244;51.460;7.090;2023-03-09T14:07:29;63.60;;;31.95;;
12359;SDS011;6244;51.460;7.090;2023-03-09T14:12:28;49.67;;;26.80;;
12359;SDS011;6244;51.460;7.090;2023-03-09T14:17:27;50.97;;;27.02;;
12359;SDS011;6244;51.460;7.090;2023-03-09T14:22:26;48.35;;;23.08;;
12359;SDS011;6244;51.460;7.090;2023-03-09T14:27:24;44.92;;;21.88;;
12359;SDS011;6244;51.460;7.090;2023-03-09T14:32:26;50.85;;;27.17;;
12359;SDS011;6244;51.460;7.090;2023-03-09T14:37:26;46.22;;;23.35;;
12359;SDS011;6244;51.460;7.090;2023-03-09T14:42:25;47.88;;;22.55;;
12359;SDS011;6244;51.460;7.090;2023-03-09T14:47:24;40.75;;;20.73;;
12359;SDS011;6244;51.460;7.090;2023-03-09T14:52:22;42.17;;;20.88;;
12359;SDS011;6244;51.460;7.090;2023-03-09T14:57:21;40.00;;;20.00;;
12359;SDS011;6244;51.460;7.090;2023-03-09T15:02:18;45.33;;;22.27;;
12359;SDS011;6244;51.460;7.090;2023-03-09T15:07:16;38.85;;;20.75;;
12359;SDS011;6244;51.460;7.090;2023-03-09T15:12:16;42.47;;;20.77;;
12359;SDS011;6244;51.460;7.090;2023-03-09T15:17:16;39.88;;;23.33;;
12359;SDS011;6244;51.460;7.090;2023-03-09T15:22:14;40.28;;;19.33;;
12359;SDS011;6244;51.460;7.090;2023-03-09T15:27:12;33.70;;;17.63;;
12359;SDS011;6244;51.460;7.090;2023-03-09T15:32:10;32.35;;;18.67;;
12359;SDS011;6244;51.460;7.090;2023-03-09T15:37:07;37.42;;;18.55;;
12359;SDS011;6244;51.460;7.090;2023-03-09T15:42:04;34.67;;;17.95;;
12359;SDS011;6244;51.460;7.090;2023-03-09T15:47:02;32.85;;;21.13;;
12359;SDS011;6244;51.460;7.090;2023-03-09T15:51:58;28.48;;;16.02;;
12359;SDS011;6244;51.460;7.090;2023-03-09T15:56:55;34.45;;;22.30;;
12359;SDS011;6244;51.460;7.090;2023-03-09T16:01:51;33.88;;;17.38;;
12359;SDS011;6244;51.460;7.090;2023-03-09T16:06:49;40.90;;;28.30;;
12359;SDS011;6244;51.460;7.090;2023-03-09T16:11:45;31.73;;;18.15;;
12359;SDS011;6244;51.460;7.090;2023-03-09T16:16:42;31.15;;;17.30;;
12359;SDS011;6244;51.460;7.090;2023-03-09T16:21:38;31.20;;;18.38;;
12359;SDS011;6244;51.460;7.090;2023-03-09T16:26:36;36.30;;;21.88;;
12359;SDS011;6244;51.460;7.090;2023-03-09T16:31:33;26.38;;;15.15;;
12359;SDS011;6244;51.460;7.090;2023-03-09T16:36:29;31.92;;;16.33;;
12359;SDS011;6244;51.460;7.090;2023-03-09T16:41:26;32.63;;;17.55;;
12359;SDS011;6244;51.460;7.090;2023-03-09T16:46:25;34.53;;;19.13;;
12359;SDS011;6244;51.460;7.090;2023-03-09T16:51:23;34.88;;;18.30;;
12359;SDS011;6244;51.460;7.090;2023-03-09T16:56:19;43.50;;;21.20;;
12359;SDS011;6244;51.460;7.090;2023-03-09T17:01:18;34.97;;;19.60;;
12359;SDS011;6244;51.460;7.090;2023-03-09T17:06:16;38.10;;;21.02;;
12359;SDS011;6244;51.460;7.090;2023-03-09T17:11:14;39.00;;;20.77;;
12359;SDS011;6244;51.460;7.090;2023-03-09T17:16:11;37.33;;;20.48;;
12359;SDS011;6244;51.460;7.090;2023-03-09T17:21:08;45.45;;;21.63;;
12359;SDS011;6244;51.460;7.090;2023-03-09T17:26:07;43.15;;;21.40;;
12359;SDS011;6244;51.460;7.090;2023-03-09T17:31:08;44.78;;;22.20;;
12359;SDS011;6244;51.460;7.090;2023-03-09T17:36:06;43.30;;;22.05;;
12359;SDS011;6244;51.460;7.090;2023-03-09T17:41:06;42.35;;;22.50;;
12359;SDS011;6244;51.460;7.090;2023-03-09T17:46:04;39.50;;;22.50;;
12359;SDS011;6244;51.460;7.090;2023-03-09T17:51:04;39.08;;;18.83;;
12359;SDS011;6244;51.460;7.090;2023-03-09T17:56:03;43.92;;;21.25;;
12359;SDS011;6244;51.460;7.090;2023-03-09T18:01:07;34.53;;;17.48;;
12359;SDS011;6244;51.460;7.090;2023-03-09T18:06:05;36.42;;;19.33;;
12359;SDS011;6244;51.460;7.090;2023-03-09T18:11:02;36.88;;;19.23;;
12359;SDS011;6244;51.460;7.090;2023-03-09T18:15:59;34.63;;;17.75;;
12359;SDS011;6244;51.460;7.090;2023-03-09T18:20:58;38.20;;;19.35;;
12359;SDS011;6244;51.460;7.090;2023-03-09T18:25:55;36.05;;;18.65;;
12359;SDS011;6244;51.460;7.090;2023-03-09T18:30:52;35.85;;;18.95;;
12359;SDS011;6244;51.460;7.090;2023-03-09T18:35:48;35.13;;;18.75;;
12359;SDS011;6244;51.460;7.090;2023-03-09T18:40:46;31.75;;;16.25;;
12359;SDS011;6244;51.460;7.090;2023-03-09T18:45:42;34.47;;;19.02;;
12359;SDS011;6244;51.460;7.090;2023-03-09T18:50:39;37.40;;;20.73;;
12359;SDS011;6244;51.460;7.090;2023-03-09T18:55:36;32.15;;;18.42;;
12359;SDS011;6244;51.460;7.090;2023-03-09T19:00:34;36.78;;;23.73;;
12359;SDS011;6244;51.460;7.090;2023-03-09T19:05:32;44.03;;;21.48;;
12359;SDS011;6244;51.460;7.090;2023-03-09T19:10:28;41.83;;;26.35;;
12359;SDS011;6244;51.460;7.090;2023-03-09T19:15:25;39.88;;;22.65;;
12359;SDS011;6244;51.460;7.090;2023-03-09T19:20:24;36.50;;;20.70;;
12359;SDS011;6244;51.460;7.090;2023-03-09T19:25:21;31.30;;;19.38;;
12359;SDS011;6244;51.460;7.090;2023-03-09T19:30:18;35.38;;;20.65;;
12359;SDS011;6244;51.460;7.090;2023-03-09T19:35:14;34.10;;;18.75;;
12359;SDS011;6244;51.460;7.090;2023-03-09T19:40:13;30.10;;;16.02;;
12359;SDS011;6244;51.460;7.090;2023-03-09T19:45:10;28.73;;;15.93;;
12359;SDS011;6244;51.460;7.090;2023-03-09T19:50:07;31.08;;;17.95;;
12359;SDS011;6244;51.460;7.090;2023-03-09T19:55:06;25.83;;;13.00;;
12359;SDS011;6244;51.460;7.090;2023-03-09T20:00:05;26.27;;;12.63;;
12359;SDS011;6244;51.460;7.090;2023-03-09T20:05:03;24.58;;;9.38;;
12359;SDS011;6244;51.460;7.090;2023-03-09T20:10:01;22.98;;;9.18;;
12359;SDS011;6244;51.460;7.090;2023-03-09T20:14:58;19.80;;;9.18;;
12359;SDS011;6244;51.460;7.090;2023-03-09T20:19:56;23.50;;;8.25;;
12359;SDS011;6244;51.460;7.090;2023-03-09T20:24:55;15.82;;;7.03;;
12359;SDS011;6244;51.460;7.090;2023-03-09T20:29:52;26.70;;;8.85;;
12359;SDS011;6244;51.460;7.090;2023-03-09T20:34:49;24.00;;;8.15;;
12359;SDS011;6244;51.460;7.090;2023-03-09T20:39:46;21.67;;;7.53;;
12359;SDS011;6244;51.460;7.090;2023-03-09T20:44:44;26.75;;;8.63;;
12359;SDS011;6244;51.460;7.090;2023-03-09T20:49:40;21.20;;;8.63;;
12359;SDS011;6244;51.460;7.090;2023-03-09T20:54:37;22.35;;;7.78;;
12359;SDS011;6244;51.460;7.090;2023-03-09T20:59:34;14.40;;;5.38;;
12359;SDS011;6244;51.460;7.090;2023-03-09T21:04:34;25.67;;;7.57;;
12359;SDS011;6244;51.460;7.090;2023-03-09T21:09:32;21.73;;;7.07;;
12359;SDS011;6244;51.460;7.090;2023-03-09T21:14:29;17.73;;;5.10;;
12359;SDS011;6244;51.460;7.090;2023-03-09T21:19:28;19.35;;;7.43;;
12359;SDS011;6244;51.460;7.090;2023-03-09T21:24:28;15.10;;;6.88;;
12359;SDS011;6244;51.460;7.090;2023-03-09T21:29:24;25.98;;;9.32;;
12359;SDS011;6244;51.460;7.090;2023-03-09T21:34:21;20.85;;;7.28;;
12359;SDS011;6244;51.460;7.090;2023-03-09T21:39:18;25.65;;;8.00;;
12359;SDS011;6244;51.460;7.090;2023-03-09T21:44:15;21.20;;;8.95;;
12359;SDS011;6244;51.460;7.090;2023-03-09T21:49:11;22.08;;;6.78;;
12359;SDS011;6244;51.460;7.090;2023-03-09T21:54:08;18.40;;;5.93;;
12359;SDS011;6244;51.460;7.090;2023-03-09T21:59:06;22.58;;;7.60;;
12359;SDS011;6244;51.460;7.090;2023-03-09T22:04:02;13.85;;;5.07;;
12359;SDS011;6244;51.460;7.090;2023-03-09T22:08:59;23.80;;;6.32;;
12359;SDS011;6244;51.460;7.090;2023-03-09T22:13:57;16.95;;;5.93;;
12359;SDS011;6244;51.460;7.090;2023-03-09T22:18:56;12.85;;;5.50;;
12359;SDS011;6244;51.460;7.090;2023-03-09T22:23:54;12.27;;;5.13;;
12359;SDS011;6244;51.460;7.090;2023-03-09T22:28:51;18.15;;;6.80;;
12359;SDS011;6244;51.460;7.090;2023-03-09T22:33:49;21.73;;;6.25;;
12359;SDS011;6244;51.460;7.090;2023-03-09T22:38:47;13.70;;;4.97;;
12359;SDS011;6244;51.460;7.090;2023-03-09T22:43:44;12.50;;;6.10;;
12359;SDS011;6244;51.460;7.090;2023-03-09T22:48:41;19.15;;;6.63;;
12359;SDS011;6244;51.460;7.090;2023-03-09T22:53:38;19.52;;;6.75;;
12359;SDS011;6244;51.460;7.090;2023-03-09T22:58:37;26.38;;;7.35;;
12359;SDS011;6244;51.460;7.090;2023-03-09T23:03:34;11.60;;;5.68;;
12359;SDS011;6244;51.460;7.090;2023-03-09T23:08:31;17.52;;;6.80;;
12359;SDS011;6244;51.460;7.090;2023-03-09T23:13:27;19.25;;;5.93;;
12359;SDS011;6244;51.460;7.090;2023-03-09T23:18:25;12.20;;;5.55;;
12359;SDS011;6244;51.460;7.090;2023-03-09T23:23:22;13.85;;;6.43;;
12359;SDS011;6244;51.460;7.090;2023-03-09T23:28:18;18.33;;;6.35;;
12359;SDS011;6244;51.460;7.090;2023-03-09T23:33:14;11.98;;;5.07;;
12359;SDS011;6244;51.460;7.090;2023-03-09T23:38:12;16.20;;;5.25;;
12359;SDS011;6244;51.460;7.090;2023-03-09T23:43:09;12.13;;;5.22;;
12359;SDS011;6244;51.460;7.090;2023-03-09T23:48:05;14.57;;;5.65;;
12359;SDS011;6244;51.460;7.090;2023-03-09T23:53:02;14.63;;;5.00;;
12359;SDS011;6244;51.460;7.090;2023-03-09T23:58:00;12.20;;;4.57;;
